createdAt,value
2022-11-10T00:01:45.660Z,1.48
2022-11-10T00:09:20.809Z,1.55
2022-11-10T00:17:05.154Z,1.10
2022-11-10T00:24:40.317Z,1.38
2022-11-10T00:32:14.383Z,1.33
2022-11-10T00:39:49.990Z,1.17
2022-11-10T00:47:23.752Z,1.33
2022-11-10T00:54:58.869Z,1.15
2022-11-10T01:02:32.671Z,1.83
2022-11-10T01:10:09.358Z,1.33
2022-11-10T01:17:43.203Z,1.48
2022-11-10T01:25:18.481Z,1.80
2022-11-10T01:32:52.255Z,1.30
2022-11-10T01:40:27.527Z,1.35
2022-11-10T01:48:06.647Z,1.50
2022-11-10T01:55:44.206Z,1.50
2022-11-10T02:03:24.453Z,1.27
2022-11-10T02:10:59.882Z,1.48
2022-11-10T02:18:33.800Z,1.42
2022-11-10T02:26:09.013Z,1.40
2022-11-10T02:33:43.148Z,1.45
2022-11-10T02:41:18.312Z,1.47
2022-11-10T02:48:52.226Z,1.83
2022-11-10T02:56:27.499Z,1.33
2022-11-10T03:04:01.356Z,2.30
2022-11-10T03:11:36.425Z,1.70
2022-11-10T03:19:10.564Z,1.70
2022-11-10T03:26:45.761Z,1.23
2022-11-10T03:34:19.806Z,1.92
2022-11-10T03:41:55.357Z,1.60
2022-11-10T03:49:29.197Z,1.30
2022-11-10T03:57:04.544Z,1.60
2022-11-10T04:04:55.927Z,1.58
2022-11-10T04:12:48.750Z,2.20
2022-11-10T04:20:23.705Z,2.22
2022-11-10T04:35:32.482Z,1.92
2022-11-10T04:43:08.877Z,1.80
2022-11-10T04:50:42.644Z,2.08
2022-11-10T04:58:17.806Z,1.73
2022-11-10T05:05:51.509Z,2.58
2022-11-10T05:13:26.852Z,1.67
2022-11-10T05:21:00.691Z,1.63
2022-11-10T05:28:36.159Z,1.77
2022-11-10T05:36:11.813Z,1.42
2022-11-10T05:43:47.444Z,1.88
2022-11-10T05:51:21.458Z,1.85
2022-11-10T05:58:56.550Z,1.90
2022-11-10T06:06:30.516Z,2.03
2022-11-10T06:14:05.796Z,2.13
2022-11-10T06:21:39.986Z,1.70
2022-11-10T06:29:15.085Z,2.07
2022-11-10T06:36:48.786Z,2.40
2022-11-10T06:44:23.935Z,1.95
2022-11-10T06:51:57.866Z,1.88
2022-11-10T06:59:33.003Z,2.50
2022-11-10T07:07:06.808Z,2.38
2022-11-10T07:14:42.121Z,2.63
2022-11-10T07:22:16.753Z,2.40
2022-11-10T07:29:51.919Z,2.47
2022-11-10T07:37:25.759Z,2.10
2022-11-10T07:45:01.219Z,2.45
2022-11-10T07:52:35.734Z,2.20
2022-11-10T08:00:13.992Z,2.70
2022-11-10T08:07:47.864Z,2.50
2022-11-10T08:15:23.269Z,3.88
2022-11-10T08:23:01.949Z,2.60
2022-11-10T08:30:39.118Z,2.70
2022-11-10T08:38:17.739Z,2.67
2022-11-10T08:45:55.806Z,2.58
2022-11-10T08:53:29.628Z,2.30
2022-11-10T09:01:09.212Z,2.75
2022-11-10T09:08:43.043Z,2.90
2022-11-10T09:16:19.398Z,2.95
2022-11-10T09:23:53.425Z,3.38
2022-11-10T09:31:28.596Z,3.55
2022-11-10T09:39:02.461Z,3.03
2022-11-10T09:46:42.115Z,2.72
2022-11-10T09:54:33.451Z,4.13
2022-11-10T10:02:20.632Z,3.75
2022-11-10T10:10:01.928Z,3.30
2022-11-10T10:17:42.466Z,2.75
2022-11-10T10:25:22.076Z,3.17
2022-11-10T10:33:02.251Z,2.50
2022-11-10T10:40:36.055Z,2.13
2022-11-10T10:48:27.840Z,2.20
2022-11-10T10:56:06.086Z,3.38
2022-11-10T11:03:44.721Z,2.13
2022-11-10T11:11:18.514Z,2.30
2022-11-10T11:18:53.769Z,3.03
2022-11-10T11:26:41.537Z,2.88
2022-11-10T11:34:22.466Z,2.20
2022-11-10T11:42:05.872Z,1.98
2022-11-10T11:49:59.901Z,1.88
2022-11-10T11:57:47.983Z,1.73
2022-11-10T12:05:48.214Z,1.92
2022-11-10T12:13:34.323Z,2.20
2022-11-10T12:21:20.334Z,2.00
2022-11-10T12:29:02.089Z,2.33
2022-11-10T12:36:38.833Z,1.83
2022-11-10T12:44:23.433Z,2.15
2022-11-10T12:52:07.771Z,1.70
2022-11-10T12:59:43.606Z,1.70
2022-11-10T13:07:25.565Z,1.92
2022-11-10T13:14:59.503Z,1.75
2022-11-10T13:22:41.730Z,1.80
2022-11-10T13:30:38.565Z,1.58
2022-11-10T13:38:36.087Z,1.35
2022-11-10T13:46:10.272Z,1.67
2022-11-10T13:53:56.720Z,2.00
2022-11-10T14:01:30.802Z,2.00
2022-11-10T14:09:23.829Z,2.60
2022-11-10T14:16:58.053Z,1.50
2022-11-10T14:24:38.079Z,1.83
2022-11-10T14:32:18.449Z,1.58
2022-11-10T14:39:57.259Z,1.73
2022-11-10T14:47:32.270Z,1.90
2022-11-10T15:02:44.391Z,1.70
2022-11-10T15:10:22.423Z,1.63
2022-11-10T15:17:56.323Z,1.67
2022-11-10T15:25:40.761Z,1.95
2022-11-10T15:33:21.588Z,1.77
2022-11-10T15:41:08.060Z,1.80
2022-11-10T15:48:44.428Z,2.15
2022-11-10T15:56:21.295Z,2.75
2022-11-10T16:03:55.102Z,2.20
2022-11-10T16:11:31.717Z,2.03
2022-11-10T16:19:06.084Z,2.55
2022-11-10T16:26:41.239Z,2.53
2022-11-10T16:34:15.756Z,2.40
2022-11-10T16:41:51.105Z,2.33
2022-11-10T16:49:31.408Z,3.67
2022-11-10T16:57:13.394Z,3.17
2022-11-10T17:04:47.526Z,3.47
2022-11-10T17:12:22.740Z,3.87
2022-11-10T17:19:56.807Z,3.88
2022-11-10T17:27:37.705Z,3.90
2022-11-10T17:35:11.915Z,3.40
2022-11-10T17:42:48.325Z,3.22
2022-11-10T17:50:24.924Z,3.03
2022-11-10T17:58:00.175Z,4.25
2022-11-10T18:05:34.312Z,4.90
2022-11-10T18:13:10.051Z,4.90
2022-11-10T18:20:45.406Z,5.07
2022-11-10T18:28:20.838Z,4.78
2022-11-10T18:35:59.659Z,5.72
2022-11-10T18:43:35.992Z,4.65
2022-11-10T18:51:10.091Z,4.25
2022-11-10T18:58:45.285Z,3.97
2022-11-10T19:06:19.581Z,3.72
2022-11-10T19:13:54.922Z,3.43
2022-11-10T19:21:28.987Z,3.90
2022-11-10T19:29:04.353Z,3.23
2022-11-10T19:36:38.208Z,2.90
2022-11-10T19:44:13.423Z,2.95
2022-11-10T19:51:47.535Z,3.60
2022-11-10T19:59:22.911Z,3.90
2022-11-10T20:07:10.544Z,3.30
2022-11-10T20:14:46.363Z,3.20
2022-11-10T20:22:20.184Z,2.78
2022-11-10T20:29:55.368Z,2.75
2022-11-10T20:37:33.168Z,2.65
2022-11-10T20:45:09.633Z,2.63
2022-11-10T20:52:43.457Z,2.63
2022-11-10T21:00:19.154Z,2.33
2022-11-10T21:07:53.286Z,2.58
2022-11-10T21:15:29.072Z,2.00
2022-11-10T21:23:03.690Z,2.75
2022-11-10T21:30:39.526Z,2.50
2022-11-10T21:38:14.117Z,2.38
2022-11-10T21:45:49.262Z,2.60
2022-11-10T21:53:23.892Z,2.58
2022-11-10T22:08:38.326Z,2.42
2022-11-10T22:16:40.063Z,2.50
2022-11-10T22:24:26.814Z,1.88
2022-11-10T22:32:02.498Z,2.13
2022-11-10T22:39:53.740Z,2.63
2022-11-10T22:47:48.940Z,1.95
2022-11-10T22:55:23.377Z,2.07
2022-11-10T23:02:58.496Z,2.10
2022-11-10T23:10:32.337Z,1.90
2022-11-10T23:18:07.558Z,2.22
2022-11-10T23:25:41.366Z,2.35
2022-11-10T23:33:16.606Z,1.98
2022-11-10T23:40:54.952Z,2.08
2022-11-10T23:48:30.134Z,2.42
2022-11-10T23:56:07.647Z,2.63
